sensor_id;sensor_type;location;lat;lon;timestamp;P1;durP1;ratioP1;P2;durP2;ratioP2
51738;SDS011;37815;52.692;6.226;2023-10-31T00:03:28;2.00;;;1.53;;
51738;SDS011;37815;52.692;6.226;2023-10-31T00:08:28;2.50;;;1.40;;
51738;SDS011;37815;52.692;6.226;2023-10-31T00:13:29;2.35;;;1.50;;
51738;SDS011;37815;52.692;6.226;2023-10-31T00:18:29;1.67;;;1.27;;
51738;SDS011;37815;52.692;6.226;2023-10-31T00:23:30;1.97;;;1.10;;
51738;SDS011;37815;52.692;6.226;2023-10-31T00:28:30;1.50;;;1.00;;
51738;SDS011;37815;52.692;6.226;2023-10-31T00:33:31;1.60;;;0.90;;
51738;SDS011;37815;52.692;6.226;2023-10-31T00:38:32;1.20;;;1.10;;
51738;SDS011;37815;52.692;6.226;2023-10-31T00:43:32;1.57;;;1.10;;
51738;SDS011;37815;52.692;6.226;2023-10-31T00:48:33;1.67;;;1.30;;
51738;SDS011;37815;52.692;6.226;2023-10-31T00:53:37;1.63;;;1.27;;
51738;SDS011;37815;52.692;6.226;2023-10-31T00:58:37;1.50;;;1.17;;
51738;SDS011;37815;52.692;6.226;2023-10-31T01:03:38;1.20;;;0.90;;
51738;SDS011;37815;52.692;6.226;2023-10-31T01:08:39;1.27;;;0.90;;
51738;SDS011;37815;52.692;6.226;2023-10-31T01:13:40;2.00;;;1.00;;
51738;SDS011;37815;52.692;6.226;2023-10-31T01:18:40;1.20;;;0.90;;
51738;SDS011;37815;52.692;6.226;2023-10-31T01:23:41;1.33;;;0.98;;
51738;SDS011;37815;52.692;6.226;2023-10-31T01:28:41;1.67;;;1.10;;
51738;SDS011;37815;52.692;6.226;2023-10-31T01:33:42;1.90;;;0.93;;
51738;SDS011;37815;52.692;6.226;2023-10-31T01:38:43;1.80;;;1.00;;
51738;SDS011;37815;52.692;6.226;2023-10-31T01:43:46;1.50;;;1.00;;
51738;SDS011;37815;52.692;6.226;2023-10-31T01:48:46;1.58;;;0.95;;
51738;SDS011;37815;52.692;6.226;2023-10-31T01:53:48;1.80;;;1.00;;
51738;SDS011;37815;52.692;6.226;2023-10-31T01:58:49;2.00;;;1.13;;
51738;SDS011;37815;52.692;6.226;2023-10-31T02:03:50;2.03;;;0.98;;
51738;SDS011;37815;52.692;6.226;2023-10-31T02:08:50;2.10;;;0.80;;
51738;SDS011;37815;52.692;6.226;2023-10-31T02:13:51;1.40;;;0.90;;
51738;SDS011;37815;52.692;6.226;2023-10-31T02:18:51;2.30;;;0.97;;
51738;SDS011;37815;52.692;6.226;2023-10-31T02:23:56;0.90;;;0.80;;
51738;SDS011;37815;52.692;6.226;2023-10-31T02:28:57;3.10;;;0.95;;
51738;SDS011;37815;52.692;6.226;2023-10-31T02:33:58;1.60;;;0.93;;
51738;SDS011;37815;52.692;6.226;2023-10-31T02:39:00;1.93;;;0.90;;
51738;SDS011;37815;52.692;6.226;2023-10-31T02:44:00;2.70;;;0.87;;
51738;SDS011;37815;52.692;6.226;2023-10-31T02:49:02;1.58;;;0.73;;
51738;SDS011;37815;52.692;6.226;2023-10-31T02:54:02;2.53;;;0.93;;
51738;SDS011;37815;52.692;6.226;2023-10-31T02:59:03;2.13;;;1.00;;
51738;SDS011;37815;52.692;6.226;2023-10-31T03:04:05;2.37;;;0.90;;
51738;SDS011;37815;52.692;6.226;2023-10-31T03:09:06;1.85;;;1.00;;
51738;SDS011;37815;52.692;6.226;2023-10-31T03:14:07;2.10;;;0.95;;
51738;SDS011;37815;52.692;6.226;2023-10-31T03:19:07;3.03;;;1.10;;
51738;SDS011;37815;52.692;6.226;2023-10-31T03:24:08;2.60;;;1.10;;
51738;SDS011;37815;52.692;6.226;2023-10-31T03:29:09;1.80;;;1.00;;
51738;SDS011;37815;52.692;6.226;2023-10-31T03:34:09;1.63;;;1.00;;
51738;SDS011;37815;52.692;6.226;2023-10-31T03:39:10;2.25;;;0.90;;
51738;SDS011;37815;52.692;6.226;2023-10-31T03:44:10;1.67;;;0.90;;
51738;SDS011;37815;52.692;6.226;2023-10-31T03:49:11;2.50;;;1.00;;
51738;SDS011;37815;52.692;6.226;2023-10-31T03:54:12;2.53;;;1.00;;
51738;SDS011;37815;52.692;6.226;2023-10-31T03:59:12;2.08;;;0.90;;
51738;SDS011;37815;52.692;6.226;2023-10-31T04:04:13;1.83;;;0.77;;
51738;SDS011;37815;52.692;6.226;2023-10-31T04:09:14;1.92;;;0.73;;
51738;SDS011;37815;52.692;6.226;2023-10-31T04:14:14;2.47;;;0.90;;
51738;SDS011;37815;52.692;6.226;2023-10-31T04:19:15;1.10;;;0.80;;
51738;SDS011;37815;52.692;6.226;2023-10-31T04:24:15;2.28;;;0.90;;
51738;SDS011;37815;52.692;6.226;2023-10-31T04:29:16;1.30;;;0.90;;
51738;SDS011;37815;52.692;6.226;2023-10-31T04:34:16;1.87;;;1.00;;
51738;SDS011;37815;52.692;6.226;2023-10-31T04:39:17;1.60;;;0.80;;
51738;SDS011;37815;52.692;6.226;2023-10-31T04:44:18;1.90;;;0.82;;
51738;SDS011;37815;52.692;6.226;2023-10-31T04:49:18;2.33;;;0.90;;
51738;SDS011;37815;52.692;6.226;2023-10-31T04:54:19;2.07;;;1.00;;
51738;SDS011;37815;52.692;6.226;2023-10-31T04:59:19;2.03;;;0.88;;
51738;SDS011;37815;52.692;6.226;2023-10-31T05:04:20;1.47;;;0.90;;
51738;SDS011;37815;52.692;6.226;2023-10-31T05:09:21;2.57;;;0.97;;
51738;SDS011;37815;52.692;6.226;2023-10-31T05:14:23;1.90;;;1.00;;
51738;SDS011;37815;52.692;6.226;2023-10-31T05:19:23;2.73;;;1.00;;
51738;SDS011;37815;52.692;6.226;2023-10-31T05:24:24;1.88;;;0.93;;
51738;SDS011;37815;52.692;6.226;2023-10-31T05:29:24;1.87;;;0.80;;
51738;SDS011;37815;52.692;6.226;2023-10-31T05:34:25;2.13;;;0.80;;
51738;SDS011;37815;52.692;6.226;2023-10-31T05:39:26;2.35;;;1.08;;
51738;SDS011;37815;52.692;6.226;2023-10-31T05:44:26;1.37;;;0.70;;
51738;SDS011;37815;52.692;6.226;2023-10-31T05:49:27;2.43;;;0.83;;
51738;SDS011;37815;52.692;6.226;2023-10-31T05:54:27;2.27;;;0.90;;
51738;SDS011;37815;52.692;6.226;2023-10-31T05:59:28;1.90;;;0.90;;
51738;SDS011;37815;52.692;6.226;2023-10-31T06:04:28;2.03;;;0.90;;
51738;SDS011;37815;52.692;6.226;2023-10-31T06:09:29;1.63;;;0.83;;
51738;SDS011;37815;52.692;6.226;2023-10-31T06:14:30;1.70;;;0.90;;
51738;SDS011;37815;52.692;6.226;2023-10-31T06:19:33;1.27;;;0.70;;
51738;SDS011;37815;52.692;6.226;2023-10-31T06:24:35;1.83;;;0.67;;
51738;SDS011;37815;52.692;6.226;2023-10-31T06:29:35;2.00;;;0.70;;
51738;SDS011;37815;52.692;6.226;2023-10-31T06:34:36;1.83;;;0.70;;
51738;SDS011;37815;52.692;6.226;2023-10-31T06:39:36;2.63;;;0.70;;
51738;SDS011;37815;52.692;6.226;2023-10-31T06:44:37;1.50;;;0.70;;
51738;SDS011;37815;52.692;6.226;2023-10-31T06:49:37;1.73;;;0.70;;
51738;SDS011;37815;52.692;6.226;2023-10-31T06:54:38;1.75;;;0.70;;
51738;SDS011;37815;52.692;6.226;2023-10-31T06:59:39;2.10;;;0.77;;
51738;SDS011;37815;52.692;6.226;2023-10-31T07:04:39;1.87;;;0.63;;
51738;SDS011;37815;52.692;6.226;2023-10-31T07:09:40;1.40;;;0.60;;
51738;SDS011;37815;52.692;6.226;2023-10-31T07:14:40;1.57;;;0.70;;
51738;SDS011;37815;52.692;6.226;2023-10-31T07:19:41;1.10;;;0.60;;
51738;SDS011;37815;52.692;6.226;2023-10-31T07:24:42;1.23;;;0.60;;
51738;SDS011;37815;52.692;6.226;2023-10-31T07:29:43;1.77;;;0.57;;
51738;SDS011;37815;52.692;6.226;2023-10-31T07:34:44;1.77;;;0.60;;
51738;SDS011;37815;52.692;6.226;2023-10-31T07:39:44;2.15;;;0.60;;
51738;SDS011;37815;52.692;6.226;2023-10-31T07:44:45;4.77;;;1.30;;
51738;SDS011;37815;52.692;6.226;2023-10-31T07:49:46;2.23;;;0.73;;
51738;SDS011;37815;52.692;6.226;2023-10-31T07:54:46;2.53;;;0.80;;
51738;SDS011;37815;52.692;6.226;2023-10-31T07:59:47;1.63;;;0.77;;
51738;SDS011;37815;52.692;6.226;2023-10-31T08:04:47;2.00;;;0.70;;
51738;SDS011;37815;52.692;6.226;2023-10-31T08:09:48;2.10;;;0.80;;
51738;SDS011;37815;52.692;6.226;2023-10-31T08:14:48;1.53;;;0.70;;
51738;SDS011;37815;52.692;6.226;2023-10-31T08:19:49;2.30;;;0.70;;
51738;SDS011;37815;52.692;6.226;2023-10-31T08:24:50;1.47;;;0.60;;
51738;SDS011;37815;52.692;6.226;2023-10-31T08:29:50;1.23;;;0.70;;
51738;SDS011;37815;52.692;6.226;2023-10-31T08:34:51;1.60;;;0.60;;
51738;SDS011;37815;52.692;6.226;2023-10-31T08:39:53;2.50;;;0.80;;
51738;SDS011;37815;52.692;6.226;2023-10-31T08:44:54;1.83;;;0.80;;
51738;SDS011;37815;52.692;6.226;2023-10-31T08:49:54;1.30;;;0.80;;
51738;SDS011;37815;52.692;6.226;2023-10-31T08:54:55;1.60;;;0.57;;
51738;SDS011;37815;52.692;6.226;2023-10-31T08:59:56;1.90;;;0.60;;
51738;SDS011;37815;52.692;6.226;2023-10-31T09:04:56;1.58;;;0.55;;
51738;SDS011;37815;52.692;6.226;2023-10-31T09:09:57;2.23;;;0.60;;
51738;SDS011;37815;52.692;6.226;2023-10-31T09:14:57;2.00;;;0.60;;
51738;SDS011;37815;52.692;6.226;2023-10-31T09:19:58;2.75;;;0.63;;
51738;SDS011;37815;52.692;6.226;2023-10-31T09:24:59;1.83;;;0.47;;
51738;SDS011;37815;52.692;6.226;2023-10-31T09:29:59;1.50;;;0.63;;
51738;SDS011;37815;52.692;6.226;2023-10-31T09:35:00;1.50;;;0.60;;
51738;SDS011;37815;52.692;6.226;2023-10-31T09:40:00;1.40;;;0.70;;
51738;SDS011;37815;52.692;6.226;2023-10-31T09:45:02;1.75;;;0.60;;
51738;SDS011;37815;52.692;6.226;2023-10-31T09:50:03;1.25;;;0.68;;
51738;SDS011;37815;52.692;6.226;2023-10-31T09:55:04;1.63;;;0.60;;
51738;SDS011;37815;52.692;6.226;2023-10-31T10:00:05;1.50;;;0.60;;
51738;SDS011;37815;52.692;6.226;2023-10-31T10:05:09;1.50;;;0.70;;
51738;SDS011;37815;52.692;6.226;2023-10-31T10:10:10;0.73;;;0.40;;
51738;SDS011;37815;52.692;6.226;2023-10-31T10:15:12;1.02;;;0.50;;
51738;SDS011;37815;52.692;6.226;2023-10-31T10:20:12;1.83;;;0.50;;
51738;SDS011;37815;52.692;6.226;2023-10-31T10:25:16;0.70;;;0.40;;
51738;SDS011;37815;52.692;6.226;2023-10-31T10:30:20;1.08;;;0.50;;
51738;SDS011;37815;52.692;6.226;2023-10-31T10:35:21;1.40;;;0.50;;
51738;SDS011;37815;52.692;6.226;2023-10-31T10:40:21;0.77;;;0.40;;
51738;SDS011;37815;52.692;6.226;2023-10-31T10:45:22;1.55;;;0.57;;
51738;SDS011;37815;52.692;6.226;2023-10-31T10:50:24;1.43;;;0.50;;
51738;SDS011;37815;52.692;6.226;2023-10-31T10:55:29;1.33;;;0.70;;
51738;SDS011;37815;52.692;6.226;2023-10-31T11:00:32;1.53;;;0.50;;
51738;SDS011;37815;52.692;6.226;2023-10-31T11:05:34;0.90;;;0.40;;
51738;SDS011;37815;52.692;6.226;2023-10-31T11:10:36;1.67;;;0.60;;
51738;SDS011;37815;52.692;6.226;2023-10-31T11:15:37;1.27;;;0.60;;
51738;SDS011;37815;52.692;6.226;2023-10-31T11:20:38;1.17;;;0.60;;
51738;SDS011;37815;52.692;6.226;2023-10-31T11:25:43;1.73;;;0.53;;
51738;SDS011;37815;52.692;6.226;2023-10-31T11:30:45;1.60;;;0.60;;
51738;SDS011;37815;52.692;6.226;2023-10-31T11:35:49;0.80;;;0.60;;
51738;SDS011;37815;52.692;6.226;2023-10-31T11:41:04;1.02;;;0.50;;
51738;SDS011;37815;52.692;6.226;2023-10-31T11:46:06;1.55;;;0.70;;
51738;SDS011;37815;52.692;6.226;2023-10-31T11:51:19;3.10;;;0.60;;
51738;SDS011;37815;52.692;6.226;2023-10-31T11:56:20;1.83;;;0.50;;
51738;SDS011;37815;52.692;6.226;2023-10-31T12:01:21;1.87;;;0.53;;
51738;SDS011;37815;52.692;6.226;2023-10-31T12:06:22;1.98;;;0.60;;
51738;SDS011;37815;52.692;6.226;2023-10-31T12:11:22;1.97;;;0.50;;
51738;SDS011;37815;52.692;6.226;2023-10-31T12:16:24;1.00;;;0.50;;
51738;SDS011;37815;52.692;6.226;2023-10-31T12:26:43;1.13;;;0.70;;
51738;SDS011;37815;52.692;6.226;2023-10-31T12:31:53;0.70;;;0.43;;
51738;SDS011;37815;52.692;6.226;2023-10-31T12:36:54;1.03;;;0.60;;
51738;SDS011;37815;52.692;6.226;2023-10-31T12:41:56;0.75;;;0.50;;
51738;SDS011;37815;52.692;6.226;2023-10-31T12:46:59;0.73;;;0.57;;
51738;SDS011;37815;52.692;6.226;2023-10-31T12:52:03;0.88;;;0.45;;
51738;SDS011;37815;52.692;6.226;2023-10-31T12:57:05;1.27;;;0.60;;
51738;SDS011;37815;52.692;6.226;2023-10-31T13:02:16;1.10;;;0.70;;
51738;SDS011;37815;52.692;6.226;2023-10-31T13:07:25;1.40;;;0.50;;
51738;SDS011;37815;52.692;6.226;2023-10-31T13:12:26;1.73;;;0.60;;
51738;SDS011;37815;52.692;6.226;2023-10-31T13:17:30;2.13;;;0.70;;
51738;SDS011;37815;52.692;6.226;2023-10-31T13:22:32;1.05;;;0.60;;
51738;SDS011;37815;52.692;6.226;2023-10-31T13:27:33;1.80;;;0.70;;
51738;SDS011;37815;52.692;6.226;2023-10-31T13:32:35;1.40;;;0.60;;
51738;SDS011;37815;52.692;6.226;2023-10-31T13:37:36;1.10;;;0.70;;
51738;SDS011;37815;52.692;6.226;2023-10-31T13:42:36;1.38;;;0.60;;
51738;SDS011;37815;52.692;6.226;2023-10-31T13:47:37;0.90;;;0.50;;
51738;SDS011;37815;52.692;6.226;2023-10-31T13:52:38;1.50;;;0.43;;
51738;SDS011;37815;52.692;6.226;2023-10-31T13:57:38;1.10;;;0.50;;
51738;SDS011;37815;52.692;6.226;2023-10-31T14:02:39;0.60;;;0.50;;
51738;SDS011;37815;52.692;6.226;2023-10-31T14:07:40;1.30;;;0.50;;
51738;SDS011;37815;52.692;6.226;2023-10-31T14:12:40;0.90;;;0.60;;
51738;SDS011;37815;52.692;6.226;2023-10-31T14:17:41;1.00;;;0.60;;
51738;SDS011;37815;52.692;6.226;2023-10-31T14:22:46;2.08;;;0.77;;
51738;SDS011;37815;52.692;6.226;2023-10-31T14:27:48;1.15;;;0.50;;
51738;SDS011;37815;52.692;6.226;2023-10-31T14:32:48;1.50;;;0.60;;
51738;SDS011;37815;52.692;6.226;2023-10-31T14:37:50;1.30;;;0.60;;
51738;SDS011;37815;52.692;6.226;2023-10-31T14:42:52;2.53;;;0.57;;
51738;SDS011;37815;52.692;6.226;2023-10-31T14:47:52;1.00;;;0.60;;
51738;SDS011;37815;52.692;6.226;2023-10-31T14:52:53;1.13;;;0.50;;
51738;SDS011;37815;52.692;6.226;2023-10-31T14:57:54;1.92;;;0.50;;
51738;SDS011;37815;52.692;6.226;2023-10-31T15:02:54;1.17;;;0.43;;
51738;SDS011;37815;52.692;6.226;2023-10-31T15:07:55;1.50;;;0.70;;
51738;SDS011;37815;52.692;6.226;2023-10-31T15:12:57;3.35;;;0.80;;
51738;SDS011;37815;52.692;6.226;2023-10-31T15:17:58;1.37;;;0.50;;
51738;SDS011;37815;52.692;6.226;2023-10-31T15:22:58;2.50;;;0.60;;
51738;SDS011;37815;52.692;6.226;2023-10-31T15:27:59;1.23;;;0.80;;
51738;SDS011;37815;52.692;6.226;2023-10-31T15:32:59;1.97;;;0.80;;
51738;SDS011;37815;52.692;6.226;2023-10-31T15:38:00;1.08;;;0.60;;
51738;SDS011;37815;52.692;6.226;2023-10-31T15:43:01;2.03;;;0.60;;
51738;SDS011;37815;52.692;6.226;2023-10-31T15:48:02;0.90;;;0.60;;
51738;SDS011;37815;52.692;6.226;2023-10-31T15:53:03;0.82;;;0.40;;
51738;SDS011;37815;52.692;6.226;2023-10-31T15:58:04;1.57;;;0.60;;
51738;SDS011;37815;52.692;6.226;2023-10-31T16:03:04;0.73;;;0.50;;
51738;SDS011;37815;52.692;6.226;2023-10-31T16:08:05;2.97;;;1.10;;
51738;SDS011;37815;52.692;6.226;2023-10-31T16:13:05;2.13;;;1.10;;
51738;SDS011;37815;52.692;6.226;2023-10-31T16:18:06;4.25;;;1.15;;
51738;SDS011;37815;52.692;6.226;2023-10-31T16:23:07;2.30;;;0.80;;
51738;SDS011;37815;52.692;6.226;2023-10-31T16:28:08;2.10;;;0.90;;
51738;SDS011;37815;52.692;6.226;2023-10-31T16:33:09;2.53;;;1.00;;
51738;SDS011;37815;52.692;6.226;2023-10-31T16:38:10;2.20;;;1.00;;
51738;SDS011;37815;52.692;6.226;2023-10-31T16:43:10;2.72;;;1.15;;
51738;SDS011;37815;52.692;6.226;2023-10-31T16:48:11;2.47;;;1.17;;
51738;SDS011;37815;52.692;6.226;2023-10-31T16:53:12;2.87;;;1.17;;
51738;SDS011;37815;52.692;6.226;2023-10-31T16:58:12;2.67;;;1.10;;
51738;SDS011;37815;52.692;6.226;2023-10-31T17:03:14;2.83;;;1.30;;
51738;SDS011;37815;52.692;6.226;2023-10-31T17:08:15;4.83;;;1.80;;
51738;SDS011;37815;52.692;6.226;2023-10-31T17:13:15;2.90;;;1.55;;
51738;SDS011;37815;52.692;6.226;2023-10-31T17:18:16;6.30;;;1.80;;
51738;SDS011;37815;52.692;6.226;2023-10-31T17:23:17;5.20;;;1.97;;
51738;SDS011;37815;52.692;6.226;2023-10-31T17:28:18;4.30;;;2.10;;
51738;SDS011;37815;52.692;6.226;2023-10-31T17:33:18;3.97;;;1.93;;
51738;SDS011;37815;52.692;6.226;2023-10-31T17:38:19;4.37;;;2.00;;
51738;SDS011;37815;52.692;6.226;2023-10-31T17:43:22;4.95;;;2.40;;
51738;SDS011;37815;52.692;6.226;2023-10-31T17:48:22;4.40;;;2.03;;
51738;SDS011;37815;52.692;6.226;2023-10-31T17:53:23;5.25;;;2.30;;
51738;SDS011;37815;52.692;6.226;2023-10-31T17:58:24;5.73;;;2.50;;
51738;SDS011;37815;52.692;6.226;2023-10-31T18:03:25;6.75;;;2.53;;
51738;SDS011;37815;52.692;6.226;2023-10-31T18:08:25;5.23;;;2.40;;
51738;SDS011;37815;52.692;6.226;2023-10-31T18:13:28;8.77;;;2.72;;
51738;SDS011;37815;52.692;6.226;2023-10-31T18:18:28;6.77;;;2.47;;
51738;SDS011;37815;52.692;6.226;2023-10-31T18:23:29;6.28;;;2.45;;
51738;SDS011;37815;52.692;6.226;2023-10-31T18:28:30;4.80;;;2.37;;
51738;SDS011;37815;52.692;6.226;2023-10-31T18:33:31;5.70;;;2.28;;
51738;SDS011;37815;52.692;6.226;2023-10-31T18:38:34;6.10;;;2.60;;
51738;SDS011;37815;52.692;6.226;2023-10-31T18:43:34;3.97;;;2.28;;
51738;SDS011;37815;52.692;6.226;2023-10-31T18:48:35;5.30;;;2.30;;
51738;SDS011;37815;52.692;6.226;2023-10-31T18:53:38;3.17;;;2.17;;
51738;SDS011;37815;52.692;6.226;2023-10-31T18:58:39;5.20;;;2.15;;
51738;SDS011;37815;52.692;6.226;2023-10-31T19:03:40;4.17;;;2.27;;
51738;SDS011;37815;52.692;6.226;2023-10-31T19:08:41;5.30;;;2.40;;
51738;SDS011;37815;52.692;6.226;2023-10-31T19:13:41;6.03;;;2.22;;
51738;SDS011;37815;52.692;6.226;2023-10-31T19:18:42;3.50;;;2.23;;
51738;SDS011;37815;52.692;6.226;2023-10-31T19:23:42;4.33;;;2.50;;
51738;SDS011;37815;52.692;6.226;2023-10-31T19:28:43;4.33;;;2.33;;
51738;SDS011;37815;52.692;6.226;2023-10-31T19:33:44;3.63;;;2.33;;
51738;SDS011;37815;52.692;6.226;2023-10-31T19:38:44;4.03;;;2.50;;
51738;SDS011;37815;52.692;6.226;2023-10-31T19:43:45;4.67;;;2.50;;
51738;SDS011;37815;52.692;6.226;2023-10-31T19:48:45;5.13;;;2.37;;
51738;SDS011;37815;52.692;6.226;2023-10-31T19:53:47;3.30;;;2.15;;
51738;SDS011;37815;52.692;6.226;2023-10-31T19:58:48;4.33;;;2.47;;
51738;SDS011;37815;52.692;6.226;2023-10-31T20:03:48;4.20;;;2.50;;
51738;SDS011;37815;52.692;6.226;2023-10-31T20:08:49;3.47;;;2.47;;
51738;SDS011;37815;52.692;6.226;2023-10-31T20:13:49;3.65;;;2.40;;
51738;SDS011;37815;52.692;6.226;2023-10-31T20:18:50;4.90;;;2.40;;
51738;SDS011;37815;52.692;6.226;2023-10-31T20:23:51;4.27;;;2.70;;
51738;SDS011;37815;52.692;6.226;2023-10-31T20:28:51;5.32;;;2.90;;
51738;SDS011;37815;52.692;6.226;2023-10-31T20:33:52;5.47;;;2.60;;
51738;SDS011;37815;52.692;6.226;2023-10-31T20:38:53;4.27;;;2.60;;
51738;SDS011;37815;52.692;6.226;2023-10-31T20:43:55;4.78;;;3.15;;
51738;SDS011;37815;52.692;6.226;2023-10-31T20:48:56;4.47;;;2.80;;
51738;SDS011;37815;52.692;6.226;2023-10-31T20:53:57;5.67;;;3.07;;
51738;SDS011;37815;52.692;6.226;2023-10-31T20:58:57;4.80;;;3.00;;
51738;SDS011;37815;52.692;6.226;2023-10-31T21:03:58;5.40;;;3.07;;
51738;SDS011;37815;52.692;6.226;2023-10-31T21:09:00;5.00;;;2.90;;
51738;SDS011;37815;52.692;6.226;2023-10-31T21:14:01;4.17;;;2.70;;
51738;SDS011;37815;52.692;6.226;2023-10-31T21:19:03;6.50;;;3.05;;
51738;SDS011;37815;52.692;6.226;2023-10-31T21:24:04;5.50;;;2.90;;
51738;SDS011;37815;52.692;6.226;2023-10-31T21:29:06;4.70;;;2.90;;
51738;SDS011;37815;52.692;6.226;2023-10-31T21:34:07;5.33;;;3.27;;
51738;SDS011;37815;52.692;6.226;2023-10-31T21:39:09;5.53;;;3.03;;
51738;SDS011;37815;52.692;6.226;2023-10-31T21:44:09;4.67;;;3.00;;
51738;SDS011;37815;52.692;6.226;2023-10-31T21:49:10;4.67;;;2.77;;
51738;SDS011;37815;52.692;6.226;2023-10-31T21:54:11;5.22;;;3.20;;
51738;SDS011;37815;52.692;6.226;2023-10-31T21:59:12;4.88;;;3.20;;
51738;SDS011;37815;52.692;6.226;2023-10-31T22:04:13;4.77;;;3.40;;
51738;SDS011;37815;52.692;6.226;2023-10-31T22:09:14;5.68;;;3.60;;
51738;SDS011;37815;52.692;6.226;2023-10-31T22:14:17;5.20;;;3.37;;
51738;SDS011;37815;52.692;6.226;2023-10-31T22:19:17;7.47;;;4.28;;
51738;SDS011;37815;52.692;6.226;2023-10-31T22:24:18;6.47;;;3.90;;
51738;SDS011;37815;52.692;6.226;2023-10-31T22:29:19;5.45;;;3.90;;
51738;SDS011;37815;52.692;6.226;2023-10-31T22:34:20;6.00;;;4.03;;
51738;SDS011;37815;52.692;6.226;2023-10-31T22:39:20;6.80;;;4.10;;
51738;SDS011;37815;52.692;6.226;2023-10-31T22:44:21;7.53;;;4.60;;
51738;SDS011;37815;52.692;6.226;2023-10-31T22:49:22;7.70;;;4.43;;
51738;SDS011;37815;52.692;6.226;2023-10-31T22:54:25;8.52;;;4.75;;
51738;SDS011;37815;52.692;6.226;2023-10-31T22:59:26;8.20;;;4.87;;
51738;SDS011;37815;52.692;6.226;2023-10-31T23:04:27;7.53;;;4.57;;
51738;SDS011;37815;52.692;6.226;2023-10-31T23:09:28;7.03;;;4.40;;
51738;SDS011;37815;52.692;6.226;2023-10-31T23:14:28;7.27;;;4.70;;
51738;SDS011;37815;52.692;6.226;2023-10-31T23:19:29;7.57;;;4.97;;
51738;SDS011;37815;52.692;6.226;2023-10-31T23:24:29;8.40;;;5.00;;
51738;SDS011;37815;52.692;6.226;2023-10-31T23:29:30;7.70;;;4.77;;
51738;SDS011;37815;52.692;6.226;2023-10-31T23:34:30;8.57;;;5.23;;
51738;SDS011;37815;52.692;6.226;2023-10-31T23:39:31;9.23;;;5.00;;
51738;SDS011;37815;52.692;6.226;2023-10-31T23:44:32;8.03;;;5.23;;
51738;SDS011;37815;52.692;6.226;2023-10-31T23:49:32;8.30;;;4.93;;
51738;SDS011;37815;52.692;6.226;2023-10-31T23:54:33;9.20;;;5.27;;
51738;SDS011;37815;52.692;6.226;2023-10-31T23:59:33;8.25;;;5.30;;
